Time;durP1;ratioP1;P1;durP2;ratioP2;P2;SDS_P1;SDS_P2;PMS_P1;PMS_P2;Temp;Humidity;BMP_temperature;BMP_pressure;BME280_temperature;BME280_humidity;BME280_pressure;Samples;Min_cycle;Max_cycle;Signal;HPM_P1;HPM_P2
2022/09/22 00:00:56;;;;;;;0.77;0.77;;;;;;;;;;5037535;28;20269;-63
2022/09/22 00:03:24;;;;;;;0.80;0.80;;;;;;;;;;5037613;28;20304;-63
2022/09/22 00:05:59;;;;;;;0.88;0.88;;;;;;;;;;5037517;28;20206;-63
2022/09/22 00:08:29;;;;;;;1.23;0.90;;;;;;;;;;5037398;28;20201;-63
2022/09/22 00:11:04;;;;;;;1.15;1.05;;;;;;;;;;5037311;28;20273;-63
2022/09/22 00:13:33;;;;;;;0.70;0.70;;;;;;;;;;5037861;28;20219;-63
2022/09/22 00:16:01;;;;;;;1.30;0.80;;;;;;;;;;5037829;28;20216;-63
2022/09/22 00:18:28;;;;;;;0.75;0.75;;;;;;;;;;5037499;28;20232;-63
2022/09/22 00:20:58;;;;;;;0.82;0.82;;;;;;;;;;5037443;28;20225;-62
2022/09/22 00:23:28;;;;;;;0.70;0.70;;;;;;;;;;5037337;28;20206;-63
2022/09/22 00:25:58;;;;;;;0.90;0.80;;;;;;;;;;5037690;28;20213;-63
2022/09/22 00:28:26;;;;;;;0.68;0.68;;;;;;;;;;5037485;28;20645;-62
2022/09/22 00:30:54;;;;;;;0.88;0.85;;;;;;;;;;5037134;28;20601;-63
2022/09/22 00:33:21;;;;;;;0.70;0.70;;;;;;;;;;5037307;28;20267;-62
2022/09/22 00:35:57;;;;;;;0.93;0.82;;;;;;;;;;5037058;28;20240;-62
2022/09/22 00:38:25;;;;;;;0.77;0.77;;;;;;;;;;5036427;28;20205;-62
2022/09/22 00:40:53;;;;;;;0.63;0.63;;;;;;;;;;5037266;28;20279;-63
2022/09/22 00:43:24;;;;;;;0.80;0.80;;;;;;;;;;5037600;28;20204;-63
2022/09/22 00:45:54;;;;;;;0.82;0.82;;;;;;;;;;5037102;28;20212;-62
2022/09/22 00:48:23;;;;;;;0.80;0.77;;;;;;;;;;5037301;28;20551;-62
2022/09/22 00:50:54;;;;;;;0.93;0.88;;;;;;;;;;5037171;28;20202;-62
2022/09/22 00:53:24;;;;;;;1.15;0.90;;;;;;;;;;5037207;28;20525;-63
2022/09/22 00:55:54;;;;;;;1.13;0.90;;;;;;;;;;5037239;28;20740;-62
2022/09/22 00:58:27;;;;;;;0.90;0.90;;;;;;;;;;5038387;28;20205;-63
2022/09/22 01:00:55;;;;;;;0.90;0.90;;;;;;;;;;5041067;28;20229;-62
2022/09/22 01:03:25;;;;;;;1.00;0.90;;;;;;;;;;5041223;28;20209;-63
2022/09/22 01:05:54;;;;;;;0.80;0.80;;;;;;;;;;5041295;28;20205;-63
2022/09/22 01:08:22;;;;;;;1.35;0.82;;;;;;;;;;5041180;28;20581;-63
2022/09/22 01:10:50;;;;;;;1.00;0.90;;;;;;;;;;5040861;28;20205;-62
2022/09/22 01:13:25;;;;;;;0.80;0.80;;;;;;;;;;5040993;28;20206;-63
2022/09/22 01:16:00;;;;;;;0.80;0.80;;;;;;;;;;5040693;28;20257;-62
2022/09/22 01:18:31;;;;;;;0.75;0.75;;;;;;;;;;5041122;28;20507;-62
2022/09/22 01:21:13;;;;;;;0.70;0.70;;;;;;;;;;5040553;28;20245;-62
2022/09/22 01:24:11;;;;;;;0.75;0.75;;;;;;;;;;5039404;28;20579;-62
2022/09/22 01:27:12;;;;;;;0.80;0.80;;;;;;;;;;5040631;28;20268;-63
2022/09/22 01:29:53;;;;;;;1.35;0.85;;;;;;;;;;4999556;28;20286;-62
2022/09/22 01:32:29;;;;;;;1.10;1.00;;;;;;;;;;4998829;28;20301;-62
2022/09/22 01:34:59;;;;;;;0.90;0.90;;;;;;;;;;5023127;28;20241;-62
2022/09/22 01:37:30;;;;;;;1.05;0.95;;;;;;;;;;5040342;28;20206;-62
2022/09/22 01:40:01;;;;;;;0.95;0.95;;;;;;;;;;5040161;28;20234;-62
2022/09/22 01:42:32;;;;;;;1.02;0.93;;;;;;;;;;5040338;28;20235;-62
2022/09/22 01:45:04;;;;;;;1.90;0.80;;;;;;;;;;5040448;28;20232;-64
2022/09/22 01:47:36;;;;;;;0.80;0.80;;;;;;;;;;5040311;28;20267;-62
2022/09/22 01:50:07;;;;;;;0.80;0.80;;;;;;;;;;5040451;28;20593;-62
2022/09/22 01:52:36;;;;;;;1.20;1.10;;;;;;;;;;5040299;28;20212;-62
2022/09/22 01:55:05;;;;;;;0.93;0.90;;;;;;;;;;5039885;28;20217;-62
2022/09/22 01:57:38;;;;;;;0.90;0.90;;;;;;;;;;5039900;28;20570;-62
2022/09/22 02:00:07;;;;;;;1.20;1.08;;;;;;;;;;5039657;28;20225;-62
2022/09/22 02:02:37;;;;;;;0.80;0.80;;;;;;;;;;5039998;28;20637;-63
2022/09/22 02:05:06;;;;;;;1.00;0.90;;;;;;;;;;5040132;28;20249;-62
2022/09/22 02:07:36;;;;;;;1.00;1.00;;;;;;;;;;5039661;28;20598;-62
2022/09/22 02:10:06;;;;;;;1.00;1.00;;;;;;;;;;5039353;28;20477;-62
2022/09/22 02:12:35;;;;;;;0.75;0.75;;;;;;;;;;5040042;28;20347;-63
2022/09/22 02:15:58;;;;;;;1.33;0.80;;;;;;;;;;5039666;28;20636;-63
2022/09/22 02:17:53;;;;;;;0.90;0.90;;;;;;;;;;5039387;28;20206;-62
2022/09/22 02:20:21;;;;;;;0.98;0.88;;;;;;;;;;5039201;28;20622;-63
2022/09/22 02:22:49;;;;;;;0.98;0.98;;;;;;;;;;5039281;28;20586;-63
2022/09/22 02:25:16;;;;;;;0.80;0.80;;;;;;;;;;5039366;28;20252;-62
2022/09/22 02:27:46;;;;;;;1.10;1.00;;;;;;;;;;5039617;28;20272;-62
2022/09/22 02:30:14;;;;;;;1.70;1.20;;;;;;;;;;5039462;28;20202;-62
2022/09/22 02:32:47;;;;;;;1.00;1.00;;;;;;;;;;5039199;28;20271;-62
2022/09/22 02:35:17;;;;;;;1.35;0.88;;;;;;;;;;5039083;28;20233;-62
2022/09/22 02:37:48;;;;;;;1.02;0.93;;;;;;;;;;5039240;28;20206;-62
2022/09/22 02:40:21;;;;;;;0.90;0.90;;;;;;;;;;5039004;28;20225;-62
2022/09/22 02:42:50;;;;;;;1.00;1.00;;;;;;;;;;5039284;28;20201;-62
2022/09/22 02:45:19;;;;;;;0.90;0.90;;;;;;;;;;5039421;28;20205;-63
2022/09/22 02:47:49;;;;;;;1.10;1.10;;;;;;;;;;5039093;28;20662;-62
2022/09/22 02:50:20;;;;;;;1.00;1.00;;;;;;;;;;5038576;28;20233;-62
2022/09/22 02:52:51;;;;;;;1.27;1.17;;;;;;;;;;5038334;28;20496;-62
2022/09/22 02:55:19;;;;;;;1.20;0.98;;;;;;;;;;5038965;28;20205;-62
2022/09/22 02:57:47;;;;;;;0.90;0.90;;;;;;;;;;5039261;28;20303;-62
2022/09/22 03:00:16;;;;;;;1.00;1.00;;;;;;;;;;5038378;28;20503;-62
2022/09/22 03:02:43;;;;;;;0.98;0.90;;;;;;;;;;5038774;28;20212;-62
2022/09/22 03:05:11;;;;;;;0.90;0.90;;;;;;;;;;5038340;28;20217;-62
2022/09/22 03:07:41;;;;;;;1.23;1.13;;;;;;;;;;5038992;28;20216;-62
2022/09/22 03:10:10;;;;;;;0.98;0.98;;;;;;;;;;5038533;28;20272;-63
2022/09/22 03:12:41;;;;;;;0.90;0.90;;;;;;;;;;5038752;28;20213;-62
2022/09/22 03:15:10;;;;;;;0.90;0.90;;;;;;;;;;5038386;28;20217;-62
2022/09/22 03:17:37;;;;;;;0.95;0.95;;;;;;;;;;5038628;28;20476;-62
2022/09/22 03:20:06;;;;;;;0.90;0.90;;;;;;;;;;5038465;28;20205;-63
2022/09/22 03:22:34;;;;;;;1.13;1.02;;;;;;;;;;5037107;28;20216;-62
2022/09/22 03:25:03;;;;;;;0.95;0.95;;;;;;;;;;5038250;28;20213;-62
2022/09/22 03:27:31;;;;;;;1.05;0.90;;;;;;;;;;5038206;28;20217;-62
2022/09/22 03:29:58;;;;;;;0.90;0.90;;;;;;;;;;5038445;28;20292;-62
2022/09/22 03:32:26;;;;;;;1.02;0.93;;;;;;;;;;5037854;28;20206;-62
2022/09/22 03:34:54;;;;;;;1.17;1.00;;;;;;;;;;5038160;28;20268;-62
2022/09/22 03:37:22;;;;;;;1.25;1.15;;;;;;;;;;5038102;28;20594;-62
2022/09/22 03:39:50;;;;;;;1.15;1.10;;;;;;;;;;5037859;28;20259;-62
2022/09/22 03:42:19;;;;;;;1.08;1.00;;;;;;;;;;5037603;28;20221;-62
2022/09/22 03:44:47;;;;;;;1.20;1.10;;;;;;;;;;5037685;28;20205;-62
2022/09/22 03:47:15;;;;;;;0.90;0.90;;;;;;;;;;5037710;28;20210;-62
2022/09/22 03:49:43;;;;;;;0.95;0.95;;;;;;;;;;5037772;28;20205;-62
2022/09/22 03:52:11;;;;;;;0.90;0.90;;;;;;;;;;5037487;28;20206;-62
2022/09/22 03:54:38;;;;;;;0.80;0.80;;;;;;;;;;5037106;28;20206;-63
2022/09/22 03:57:06;;;;;;;0.90;0.90;;;;;;;;;;5037272;28;20205;-63
2022/09/22 03:59:36;;;;;;;0.90;0.90;;;;;;;;;;5037165;28;20241;-62
2022/09/22 04:02:04;;;;;;;0.88;0.88;;;;;;;;;;5036947;28;20237;-62
2022/09/22 04:04:32;;;;;;;0.90;0.90;;;;;;;;;;5036987;28;20529;-63
2022/09/22 04:07:00;;;;;;;0.80;0.80;;;;;;;;;;5037127;28;20206;-63
2022/09/22 04:09:27;;;;;;;0.93;0.93;;;;;;;;;;5037182;28;20233;-62
2022/09/22 04:11:54;;;;;;;0.80;0.80;;;;;;;;;;5036833;28;20293;-63
2022/09/22 04:14:22;;;;;;;0.90;0.90;;;;;;;;;;5037144;28;20201;-63
2022/09/22 04:16:51;;;;;;;0.85;0.85;;;;;;;;;;5037137;28;20209;-62
2022/09/22 04:19:19;;;;;;;1.02;1.00;;;;;;;;;;5036901;28;20213;-63
2022/09/22 04:21:47;;;;;;;0.85;0.85;;;;;;;;;;5036659;28;20226;-62
2022/09/22 04:24:15;;;;;;;1.05;1.00;;;;;;;;;;5036533;28;20240;-62
2022/09/22 04:26:43;;;;;;;1.17;1.08;;;;;;;;;;5036023;28;20197;-62
2022/09/22 04:29:11;;;;;;;0.98;0.98;;;;;;;;;;5036938;28;20607;-62
2022/09/22 04:31:39;;;;;;;0.90;0.90;;;;;;;;;;5036403;28;20216;-62
2022/09/22 04:34:07;;;;;;;0.90;0.90;;;;;;;;;;5036502;28;20214;-62
2022/09/22 04:36:35;;;;;;;0.90;0.90;;;;;;;;;;5035928;28;20570;-62
2022/09/22 04:39:02;;;;;;;0.90;0.90;;;;;;;;;;5035609;28;20216;-62
2022/09/22 04:41:30;;;;;;;1.42;0.85;;;;;;;;;;5035618;28;20240;-63
2022/09/22 04:43:58;;;;;;;1.10;1.00;;;;;;;;;;5036007;28;20264;-62
2022/09/22 04:46:26;;;;;;;0.90;0.90;;;;;;;;;;5036089;28;20293;-63
2022/09/22 04:48:53;;;;;;;0.90;0.90;;;;;;;;;;5034689;28;20205;-62
2022/09/22 04:51:22;;;;;;;1.15;1.05;;;;;;;;;;5034164;28;20237;-62
2022/09/22 04:53:50;;;;;;;1.20;1.10;;;;;;;;;;5034617;28;20299;-62
2022/09/22 04:56:17;;;;;;;1.00;1.00;;;;;;;;;;5034146;28;20288;-62
2022/09/22 04:58:45;;;;;;;1.17;1.10;;;;;;;;;;5034408;28;20201;-62
2022/09/22 05:01:12;;;;;;;0.80;0.80;;;;;;;;;;5034011;28;20233;-63
2022/09/22 05:03:40;;;;;;;0.85;0.85;;;;;;;;;;5033723;28;20206;-62
2022/09/22 05:06:07;;;;;;;1.20;1.10;;;;;;;;;;5034541;28;20294;-63
2022/09/22 05:08:36;;;;;;;0.98;0.98;;;;;;;;;;5034661;28;20657;-63
2022/09/22 05:11:05;;;;;;;1.25;0.90;;;;;;;;;;5034467;28;20241;-63
2022/09/22 05:13:33;;;;;;;1.08;1.00;;;;;;;;;;5034286;28;20228;-63
2022/09/22 05:16:01;;;;;;;0.90;0.90;;;;;;;;;;5033570;28;20535;-63
2022/09/22 05:18:28;;;;;;;1.08;1.00;;;;;;;;;;5033243;28;20669;-62
2022/09/22 05:20:56;;;;;;;0.90;0.90;;;;;;;;;;5034049;28;20217;-62
2022/09/22 05:23:24;;;;;;;1.25;1.15;;;;;;;;;;5033267;28;20604;-63
2022/09/22 05:25:53;;;;;;;0.93;0.93;;;;;;;;;;5034405;28;20259;-63
2022/09/22 05:28:23;;;;;;;1.20;1.10;;;;;;;;;;5033928;28;20267;-62
2022/09/22 05:30:50;;;;;;;0.93;0.93;;;;;;;;;;5033875;28;20246;-62
2022/09/22 05:33:18;;;;;;;1.23;1.13;;;;;;;;;;5033969;28;20216;-62
2022/09/22 05:35:45;;;;;;;1.10;1.00;;;;;;;;;;5033814;28;20620;-62
2022/09/22 05:38:14;;;;;;;1.10;1.00;;;;;;;;;;5034099;28;20297;-62
2022/09/22 05:40:42;;;;;;;1.20;1.10;;;;;;;;;;5033742;28;20242;-62
2022/09/22 05:43:11;;;;;;;1.20;1.10;;;;;;;;;;5033465;28;20597;-63
2022/09/22 05:45:38;;;;;;;0.90;0.90;;;;;;;;;;5036092;28;20487;-62
2022/09/22 05:48:05;;;;;;;1.00;1.00;;;;;;;;;;5036299;28;20304;-62
2022/09/22 05:50:35;;;;;;;1.20;1.10;;;;;;;;;;5036133;28;20312;-62
2022/09/22 05:53:04;;;;;;;1.05;1.05;;;;;;;;;;5036082;28;20493;-62
2022/09/22 05:55:32;;;;;;;0.82;0.82;;;;;;;;;;5036497;28;20202;-62
2022/09/22 05:57:59;;;;;;;0.98;0.98;;;;;;;;;;5036515;28;20765;-62
2022/09/22 06:00:28;;;;;;;1.08;1.08;;;;;;;;;;5035949;28;20208;-62
2022/09/22 06:02:55;;;;;;;1.08;1.05;;;;;;;;;;5034575;28;20328;-62
2022/09/22 06:05:23;;;;;;;1.17;1.08;;;;;;;;;;5036728;28;20338;-62
2022/09/22 06:07:59;;;;;;;1.38;1.10;;;;;;;;;;5037065;28;20309;-62
2022/09/22 06:10:27;;;;;;;1.00;1.00;;;;;;;;;;5036694;28;20280;-62
2022/09/22 06:12:58;;;;;;;1.20;1.02;;;;;;;;;;5037008;28;20295;-63
2022/09/22 06:15:27;;;;;;;1.00;1.00;;;;;;;;;;5036318;28;20212;-63
2022/09/22 06:17:56;;;;;;;1.20;1.10;;;;;;;;;;5037325;28;20685;-62
2022/09/22 06:20:24;;;;;;;1.30;1.20;;;;;;;;;;5036930;28;20484;-62
2022/09/22 06:22:51;;;;;;;1.10;1.00;;;;;;;;;;5037405;28;20235;-62
2022/09/22 06:25:19;;;;;;;1.13;1.02;;;;;;;;;;5037413;28;20362;-62
2022/09/22 06:27:48;;;;;;;1.13;1.02;;;;;;;;;;5036988;28;20245;-62
2022/09/22 06:30:15;;;;;;;2.10;1.10;;;;;;;;;;5036820;28;20300;-62
2022/09/22 06:32:44;;;;;;;1.67;1.10;;;;;;;;;;5036514;28;20291;-62
2022/09/22 06:35:14;;;;;;;1.13;1.02;;;;;;;;;;5036374;28;20251;-63
2022/09/22 06:37:41;;;;;;;1.75;1.30;;;;;;;;;;5035202;28;20583;-62
2022/09/22 06:40:09;;;;;;;1.20;1.10;;;;;;;;;;5036986;28;20213;-62
2022/09/22 06:42:37;;;;;;;1.27;1.10;;;;;;;;;;5036416;28;20257;-63
2022/09/22 06:45:07;;;;;;;1.85;1.17;;;;;;;;;;5036864;28;20206;-62
2022/09/22 06:47:37;;;;;;;2.05;1.15;;;;;;;;;;5016942;28;20206;-62
2022/09/22 06:50:08;;;;;;;1.40;1.30;;;;;;;;;;5016744;28;20309;-62
2022/09/22 06:52:37;;;;;;;2.28;1.23;;;;;;;;;;5016655;28;20589;-63
2022/09/22 06:55:05;;;;;;;1.48;1.20;;;;;;;;;;5016392;28;20206;-62
2022/09/22 06:57:32;;;;;;;2.55;1.17;;;;;;;;;;5016234;28;20242;-62
2022/09/22 07:00:01;;;;;;;1.63;1.13;;;;;;;;;;5016532;28;20206;-62
2022/09/22 07:02:29;;;;;;;1.50;1.40;;;;;;;;;;5016416;28;20233;-62
2022/09/22 07:04:57;;;;;;;1.95;1.13;;;;;;;;;;5016309;28;20210;-62
2022/09/22 07:07:26;;;;;;;1.50;1.40;;;;;;;;;;5016641;28;20205;-62
2022/09/22 07:09:55;;;;;;;1.33;1.23;;;;;;;;;;5016357;28;20605;-63
2022/09/22 07:12:24;;;;;;;1.42;1.02;;;;;;;;;;5035866;28;20597;-64
2022/09/22 07:14:52;;;;;;;1.30;1.20;;;;;;;;;;5034570;28;20217;-63
2022/09/22 07:17:20;;;;;;;1.42;1.30;;;;;;;;;;5035968;28;20220;-64
2022/09/22 07:19:47;;;;;;;1.25;1.15;;;;;;;;;;5035261;28;20217;-63
2022/09/22 07:22:15;;;;;;;1.40;1.30;;;;;;;;;;5035585;28;20241;-63
2022/09/22 07:24:43;;;;;;;1.30;1.20;;;;;;;;;;5035431;28;20201;-63
2022/09/22 07:27:19;;;;;;;1.50;1.30;;;;;;;;;;5034231;28;20690;-63
2022/09/22 07:29:47;;;;;;;1.13;1.02;;;;;;;;;;5035619;28;20542;-63
2022/09/22 07:32:15;;;;;;;1.20;1.10;;;;;;;;;;5036349;28;20208;-62
2022/09/22 07:34:43;;;;;;;1.30;1.20;;;;;;;;;;5035057;28;20320;-63
2022/09/22 07:37:12;;;;;;;1.90;1.52;;;;;;;;;;5035030;28;20567;-62
2022/09/22 07:39:39;;;;;;;1.35;1.20;;;;;;;;;;5034598;28;20516;-62
2022/09/22 07:42:07;;;;;;;1.30;1.20;;;;;;;;;;5035096;28;20324;-63
2022/09/22 07:48:35;;;;;;;1.98;1.30;;;;;;;;;;5034174;28;20205;-63
2022/09/22 07:50:08;;;;;;;1.40;1.30;;;;;;;;;;5034998;28;20316;-63
2022/09/22 07:52:36;;;;;;;2.25;1.40;;;;;;;;;;5034392;28;20252;-63
2022/09/22 07:55:04;;;;;;;1.25;1.15;;;;;;;;;;5035158;28;20885;-63
2022/09/22 07:57:32;;;;;;;1.42;1.33;;;;;;;;;;5034874;28;20311;-63
2022/09/22 08:00:01;;;;;;;1.75;1.65;;;;;;;;;;5034407;28;20267;-62
2022/09/22 08:02:29;;;;;;;1.50;1.30;;;;;;;;;;5034201;28;20245;-62
2022/09/22 08:05:01;;;;;;;2.50;1.40;;;;;;;;;;5034468;28;20197;-63
2022/09/22 08:07:31;;;;;;;1.50;1.40;;;;;;;;;;5034116;28;20594;-63
2022/09/22 08:09:59;;;;;;;1.77;1.35;;;;;;;;;;5033683;28;20205;-63
2022/09/22 08:12:27;;;;;;;1.73;1.38;;;;;;;;;;5033960;28;20291;-63
2022/09/22 08:14:57;;;;;;;1.40;1.30;;;;;;;;;;5034917;28;20201;-63
2022/09/22 08:17:25;;;;;;;1.40;1.30;;;;;;;;;;5034881;28;20468;-63
2022/09/22 08:19:54;;;;;;;1.83;1.48;;;;;;;;;;5034430;28;20297;-63
2022/09/22 08:22:21;;;;;;;1.58;1.48;;;;;;;;;;5035186;28;20222;-63
2022/09/22 08:24:49;;;;;;;2.08;1.40;;;;;;;;;;5034910;28;20606;-63
2022/09/22 08:27:17;;;;;;;1.58;1.42;;;;;;;;;;5033298;28;20299;-63
2022/09/22 08:29:45;;;;;;;1.70;1.40;;;;;;;;;;5034946;28;20216;-63
2022/09/22 08:32:16;;;;;;;1.73;1.63;;;;;;;;;;5034553;28;20193;-63
2022/09/22 08:34:45;;;;;;;1.35;1.25;;;;;;;;;;5034081;28;20233;-63
2022/09/22 08:37:12;;;;;;;1.55;1.45;;;;;;;;;;5034122;28;20543;-63
2022/09/22 08:39:40;;;;;;;1.98;1.55;;;;;;;;;;5034271;28;20538;-63
2022/09/22 08:42:10;;;;;;;1.50;1.40;;;;;;;;;;5033720;28;20328;-63
2022/09/22 08:44:40;;;;;;;1.45;1.33;;;;;;;;;;5034076;28;20638;-63
2022/09/22 08:47:14;;;;;;;1.70;1.50;;;;;;;;;;5034414;28;20296;-63
2022/09/22 08:52:33;;;;;;;1.52;1.40;;;;;;;;;;5033325;28;20593;-63
2022/09/22 08:55:01;;;;;;;1.70;1.27;;;;;;;;;;5034170;28;20241;-63
2022/09/22 08:57:36;;;;;;;2.85;1.92;;;;;;;;;;5034594;28;20245;-63
2022/09/22 09:00:06;;;;;;;2.67;1.50;;;;;;;;;;5032902;28;20216;-63
2022/09/22 09:02:40;;;;;;;1.90;1.60;;;;;;;;;;5033188;28;20244;-63
2022/09/22 09:05:32;;;;;;;1.48;1.38;;;;;;;;;;5034026;28;20303;-63
2022/09/22 09:08:06;;;;;;;2.08;1.20;;;;;;;;;;5034644;28;20202;-63
2022/09/22 09:10:40;;;;;;;2.38;1.58;;;;;;;;;;5033317;28;20201;-63
2022/09/22 09:13:20;;;;;;;1.60;1.50;;;;;;;;;;5033231;28;20233;-63
2022/09/22 09:15:57;;;;;;;2.08;1.60;;;;;;;;;;5033695;28;20283;-63
2022/09/22 09:18:28;;;;;;;2.03;1.35;;;;;;;;;;5038189;28;20209;-63
2022/09/22 09:20:58;;;;;;;1.70;1.60;;;;;;;;;;5037746;28;20241;-63
2022/09/22 09:23:30;;;;;;;1.80;1.52;;;;;;;;;;5037267;28;20292;-63
2022/09/22 09:25:59;;;;;;;2.55;1.65;;;;;;;;;;5037920;28;20587;-63
2022/09/22 09:28:32;;;;;;;3.22;1.60;;;;;;;;;;5036432;28;20205;-63
2022/09/22 09:31:06;;;;;;;1.90;1.40;;;;;;;;;;5037381;28;20205;-63
2022/09/22 09:33:39;;;;;;;1.58;1.48;;;;;;;;;;5036848;28;20289;-63
2022/09/22 09:36:13;;;;;;;1.75;1.65;;;;;;;;;;5036919;28;20291;-63
2022/09/22 09:38:45;;;;;;;2.05;1.60;;;;;;;;;;5036706;28;20205;-63
2022/09/22 09:41:14;;;;;;;1.67;1.42;;;;;;;;;;5036405;28;20237;-63
2022/09/22 09:43:44;;;;;;;1.40;1.30;;;;;;;;;;5037851;28;20233;-63
2022/09/22 09:46:15;;;;;;;2.15;1.60;;;;;;;;;;5036447;28;20267;-63
2022/09/22 09:48:50;;;;;;;1.58;1.40;;;;;;;;;;5035709;28;20206;-63
2022/09/22 09:51:18;;;;;;;1.73;1.50;;;;;;;;;;5037107;28;20216;-63
2022/09/22 09:53:48;;;;;;;1.83;1.45;;;;;;;;;;5035630;28;20197;-63
2022/09/22 09:56:23;;;;;;;1.63;1.40;;;;;;;;;;5036670;28;20271;-63
2022/09/22 10:01:44;;;;;;;1.75;1.38;;;;;;;;;;5034985;28;20185;-63
2022/09/22 10:04:18;;;;;;;2.38;1.42;;;;;;;;;;5035642;28;20621;-63
2022/09/22 10:06:46;;;;;;;1.73;1.33;;;;;;;;;;5035015;28;20536;-63
2022/09/22 10:09:25;;;;;;;1.55;1.30;;;;;;;;;;5035784;28;20216;-63
2022/09/22 10:11:59;;;;;;;1.83;1.27;;;;;;;;;;5035023;28;20521;-63
2022/09/22 10:14:29;;;;;;;1.55;1.45;;;;;;;;;;5035865;28;20797;-63
2022/09/22 10:16:56;;;;;;;1.50;1.40;;;;;;;;;;5035506;28;20215;-63
2022/09/22 10:19:27;;;;;;;1.48;1.20;;;;;;;;;;5035401;28;20235;-63
2022/09/22 10:22:14;;;;;;;1.30;1.20;;;;;;;;;;5035508;28;20213;-63
2022/09/22 10:24:53;;;;;;;1.73;1.25;;;;;;;;;;5035444;28;20244;-63
2022/09/22 10:27:24;;;;;;;1.65;1.40;;;;;;;;;;5034948;28;20205;-63
2022/09/22 10:30:10;;;;;;;1.70;1.30;;;;;;;;;;5034848;28;20229;-63
2022/09/22 10:32:37;;;;;;;1.52;1.33;;;;;;;;;;5034343;28;20233;-63
2022/09/22 10:35:25;;;;;;;1.40;1.30;;;;;;;;;;5034065;28;20230;-63
2022/09/22 10:37:53;;;;;;;1.40;1.30;;;;;;;;;;5035603;28;20209;-63
2022/09/22 10:40:22;;;;;;;1.40;1.30;;;;;;;;;;5035448;28;20304;-63
2022/09/22 10:42:50;;;;;;;1.20;1.10;;;;;;;;;;5034836;28;20332;-63
2022/09/22 10:45:19;;;;;;;1.30;1.20;;;;;;;;;;5033324;28;20516;-63
2022/09/22 10:47:53;;;;;;;1.50;1.27;;;;;;;;;;5034412;28;20773;-63
2022/09/22 10:50:35;;;;;;;1.30;1.20;;;;;;;;;;5034026;28;20870;-63
2022/09/22 10:53:10;;;;;;;1.42;1.20;;;;;;;;;;5034207;28;20233;-63
2022/09/22 10:55:42;;;;;;;1.30;1.20;;;;;;;;;;5035355;28;20692;-63
2022/09/22 10:58:26;;;;;;;1.17;1.08;;;;;;;;;;5035045;28;20210;-63
2022/09/22 11:01:01;;;;;;;1.25;1.15;;;;;;;;;;5034739;28;20197;-63
2022/09/22 11:03:35;;;;;;;1.13;1.02;;;;;;;;;;5033781;28;20256;-63
2022/09/22 11:14:45;;;;;;;1.33;1.23;;;;;;;;;;5033621;28;20200;-63
2022/09/22 11:17:21;;;;;;;0.90;0.90;;;;;;;;;;5034601;28;20242;-63
2022/09/22 11:19:54;;;;;;;1.45;1.02;;;;;;;;;;5035191;28;20211;-63
2022/09/22 11:22:27;;;;;;;0.80;0.80;;;;;;;;;;5035036;28;20303;-63
2022/09/22 11:25:04;;;;;;;1.40;1.08;;;;;;;;;;5033758;28;20210;-63
2022/09/22 11:27:38;;;;;;;1.20;0.90;;;;;;;;;;5033049;28;20244;-63
2022/09/22 11:30:08;;;;;;;1.10;1.00;;;;;;;;;;5033200;28;20509;-63
2022/09/22 11:32:42;;;;;;;1.00;0.90;;;;;;;;;;5034477;28;20467;-63
2022/09/22 11:35:20;;;;;;;1.10;1.00;;;;;;;;;;5034076;28;20244;-63
2022/09/22 11:37:50;;;;;;;1.13;1.10;;;;;;;;;;5033780;28;20304;-63
2022/09/22 11:40:26;;;;;;;1.63;0.98;;;;;;;;;;5033986;28;20206;-63
2022/09/22 11:42:58;;;;;;;0.98;0.98;;;;;;;;;;5033230;28;20261;-63
2022/09/22 11:45:35;;;;;;;1.10;1.00;;;;;;;;;;5033507;28;20664;-63
2022/09/22 11:48:06;;;;;;;1.30;0.90;;;;;;;;;;5033773;28;20212;-63
2022/09/22 11:50:41;;;;;;;1.38;1.08;;;;;;;;;;5034515;28;20244;-63
2022/09/22 11:53:15;;;;;;;0.90;0.90;;;;;;;;;;5033826;28;20701;-63
2022/09/22 11:55:47;;;;;;;1.23;1.10;;;;;;;;;;5033689;28;20585;-63
2022/09/22 11:58:18;;;;;;;0.82;0.82;;;;;;;;;;5034010;28;20206;-63
2022/09/22 12:00:48;;;;;;;1.20;1.00;;;;;;;;;;5033141;28;20292;-63
2022/09/22 12:03:17;;;;;;;0.90;0.90;;;;;;;;;;5033127;28;20329;-63
2022/09/22 12:05:47;;;;;;;0.85;0.77;;;;;;;;;;5033338;28;20245;-63
2022/09/22 12:08:17;;;;;;;1.10;1.00;;;;;;;;;;5033744;28;20263;-63
2022/09/22 12:10:46;;;;;;;0.85;0.85;;;;;;;;;;5033742;28;20248;-63
2022/09/22 12:13:15;;;;;;;0.88;0.88;;;;;;;;;;5033742;28;20197;-63
2022/09/22 12:15:48;;;;;;;0.85;0.85;;;;;;;;;;5033555;28;20614;-63
2022/09/22 12:18:17;;;;;;;0.90;0.90;;;;;;;;;;5033385;28;20205;-63
2022/09/22 12:20:49;;;;;;;0.80;0.80;;;;;;;;;;5033099;28;20208;-63
2022/09/22 12:23:24;;;;;;;0.77;0.70;;;;;;;;;;5033806;28;20324;-63
2022/09/22 12:25:54;;;;;;;0.77;0.77;;;;;;;;;;5033131;28;20236;-63
2022/09/22 12:28:24;;;;;;;0.80;0.80;;;;;;;;;;5032796;28;20594;-63
2022/09/22 12:31:05;;;;;;;0.70;0.70;;;;;;;;;;5032427;28;20271;-63
2022/09/22 12:33:33;;;;;;;0.90;0.80;;;;;;;;;;5032724;28;20251;-63
2022/09/22 12:36:01;;;;;;;0.80;0.80;;;;;;;;;;5032218;28;20291;-63
2022/09/22 12:38:30;;;;;;;1.00;0.90;;;;;;;;;;5032412;28;20267;-63
2022/09/22 12:41:01;;;;;;;0.90;0.90;;;;;;;;;;5032385;28;20271;-63
2022/09/22 12:43:29;;;;;;;0.70;0.70;;;;;;;;;;5032077;28;20233;-63
2022/09/22 12:45:58;;;;;;;0.80;0.80;;;;;;;;;;5032753;28;20205;-63
2022/09/22 12:48:28;;;;;;;0.75;0.75;;;;;;;;;;5032830;28;20311;-63
2022/09/22 12:51:15;;;;;;;0.77;0.77;;;;;;;;;;5032446;28;20264;-63
2022/09/22 12:53:42;;;;;;;0.70;0.70;;;;;;;;;;5034695;28;20201;-63
2022/09/22 12:56:25;;;;;;;1.00;0.90;;;;;;;;;;5036872;28;20208;-63
2022/09/22 12:58:52;;;;;;;1.05;0.95;;;;;;;;;;5036350;28;20256;-63
2022/09/22 13:01:33;;;;;;;0.77;0.77;;;;;;;;;;5036112;28;20309;-63
2022/09/22 13:04:14;;;;;;;1.00;0.90;;;;;;;;;;5036476;28;20594;-63
2022/09/22 13:07:00;;;;;;;0.65;0.65;;;;;;;;;;5036079;28;20241;-63
2022/09/22 13:09:29;;;;;;;0.60;0.60;;;;;;;;;;5036274;28;20201;-63
2022/09/22 13:12:22;;;;;;;0.70;0.70;;;;;;;;;;5035293;28;20709;-63
2022/09/22 13:15:01;;;;;;;1.63;0.70;;;;;;;;;;5035782;28;20203;-63
2022/09/22 13:17:40;;;;;;;0.70;0.70;;;;;;;;;;5035594;28;20528;-63
2022/09/22 13:20:14;;;;;;;0.60;0.60;;;;;;;;;;5036617;28;20220;-62
2022/09/22 13:22:42;;;;;;;0.60;0.60;;;;;;;;;;5035788;28;20217;-62
2022/09/22 13:25:16;;;;;;;0.60;0.60;;;;;;;;;;5035866;28;20221;-62
2022/09/22 13:27:44;;;;;;;0.70;0.70;;;;;;;;;;5036058;28;20229;-62
2022/09/22 13:30:14;;;;;;;0.70;0.70;;;;;;;;;;5035440;28;20240;-62
2022/09/22 13:32:48;;;;;;;0.77;0.77;;;;;;;;;;5035088;28;20206;-62
2022/09/22 13:35:27;;;;;;;0.68;0.60;;;;;;;;;;5035200;28;20781;-63
2022/09/22 13:37:56;;;;;;;0.70;0.70;;;;;;;;;;5035537;28;20227;-62
2022/09/22 13:40:26;;;;;;;0.88;0.70;;;;;;;;;;5035864;28;20216;-62
2022/09/22 13:42:54;;;;;;;0.70;0.70;;;;;;;;;;5034915;28;20229;-62
2022/09/22 13:45:25;;;;;;;0.70;0.70;;;;;;;;;;5034605;28;20260;-62
2022/09/22 13:47:54;;;;;;;0.60;0.60;;;;;;;;;;5035212;28;20272;-63
2022/09/22 13:50:22;;;;;;;0.60;0.60;;;;;;;;;;5035031;28;20216;-62
2022/09/22 13:52:52;;;;;;;0.60;0.60;;;;;;;;;;5035610;28;20309;-62
2022/09/22 13:55:22;;;;;;;0.70;0.55;;;;;;;;;;5034354;28;20202;-63
2022/09/22 13:57:50;;;;;;;1.00;0.65;;;;;;;;;;5036418;28;20206;-63
2022/09/22 14:00:23;;;;;;;0.70;0.65;;;;;;;;;;5035846;28;20205;-63
2022/09/22 14:02:51;;;;;;;0.80;0.77;;;;;;;;;;5036416;28;20212;-63
2022/09/22 14:05:20;;;;;;;0.75;0.75;;;;;;;;;;5034765;28;20261;-63
2022/09/22 14:07:48;;;;;;;0.60;0.60;;;;;;;;;;5034986;28;20209;-63
2022/09/22 14:10:18;;;;;;;0.50;0.50;;;;;;;;;;5035387;28;20306;-63
2022/09/22 14:12:46;;;;;;;0.50;0.45;;;;;;;;;;5035000;28;20211;-63
2022/09/22 14:15:32;;;;;;;0.82;0.60;;;;;;;;;;5035731;28;20229;-63
2022/09/22 14:18:00;;;;;;;0.60;0.50;;;;;;;;;;5035037;28;20217;-63
2022/09/22 14:20:27;;;;;;;0.60;0.60;;;;;;;;;;5035934;28;20296;-63
2022/09/22 14:22:55;;;;;;;0.40;0.40;;;;;;;;;;5035129;28;20202;-63
2022/09/22 14:25:24;;;;;;;0.90;0.68;;;;;;;;;;5034692;28;20617;-63
2022/09/22 14:27:54;;;;;;;0.70;0.70;;;;;;;;;;5035031;28;20263;-63
2022/09/22 14:30:21;;;;;;;1.00;0.60;;;;;;;;;;5035480;28;20221;-63
2022/09/22 14:32:51;;;;;;;1.08;0.60;;;;;;;;;;5035017;28;20308;-63
2022/09/22 14:35:23;;;;;;;0.57;0.57;;;;;;;;;;5035478;28;20269;-63
2022/09/22 14:37:51;;;;;;;1.02;0.60;;;;;;;;;;5035048;28;20531;-63
2022/09/22 14:40:20;;;;;;;0.88;0.55;;;;;;;;;;5035453;28;20578;-63
2022/09/22 14:42:57;;;;;;;0.90;0.63;;;;;;;;;;5033787;28;20259;-63
2022/09/22 14:45:26;;;;;;;1.00;0.60;;;;;;;;;;5036060;28;20264;-63
2022/09/22 14:48:12;;;;;;;1.20;0.60;;;;;;;;;;5035038;28;20236;-63
2022/09/22 14:50:41;;;;;;;0.52;0.52;;;;;;;;;;5035250;28;20304;-63
2022/09/22 14:53:14;;;;;;;0.60;0.60;;;;;;;;;;5034883;28;20283;-63
2022/09/22 14:55:43;;;;;;;0.80;0.60;;;;;;;;;;5034971;28;20210;-63
2022/09/22 14:58:17;;;;;;;1.58;0.57;;;;;;;;;;5035046;28;20296;-63
2022/09/22 15:03:38;;;;;;;1.25;0.70;;;;;;;;;;5033543;28;20525;-63
2022/09/22 15:06:06;;;;;;;0.70;0.70;;;;;;;;;;5034614;28;20206;-63
2022/09/22 15:08:34;;;;;;;0.63;0.50;;;;;;;;;;5034892;28;20524;-63
2022/09/22 15:11:02;;;;;;;1.35;0.80;;;;;;;;;;5034300;28;20233;-63
2022/09/22 15:13:38;;;;;;;1.05;0.60;;;;;;;;;;5033622;28;20209;-63
2022/09/22 15:16:06;;;;;;;0.85;0.75;;;;;;;;;;5034550;28;20201;-63
2022/09/22 15:18:33;;;;;;;0.90;0.75;;;;;;;;;;5033593;28;20792;-63
2022/09/22 15:21:05;;;;;;;0.90;0.68;;;;;;;;;;5034828;28;20268;-63
2022/09/22 15:23:38;;;;;;;1.08;0.60;;;;;;;;;;5035006;28;20213;-63